createdAt,value
2018-12-25T00:00:47.017Z,101926.08
2018-12-25T00:03:17.939Z,101923.12
2018-12-25T00:05:48.904Z,101928.92
2018-12-25T00:08:19.821Z,101926.90
2018-12-25T00:10:50.782Z,101930.27
2018-12-25T00:13:21.711Z,101931.02
2018-12-25T00:15:52.651Z,101935.54
2018-12-25T00:18:23.578Z,101935.25
2018-12-25T00:20:54.529Z,101938.33
2018-12-25T00:23:25.535Z,101935.25
2018-12-25T00:25:56.493Z,101932.52
2018-12-25T00:28:27.423Z,101932.81
2018-12-25T00:30:58.375Z,101924.93
2018-12-25T00:33:29.299Z,101929.05
2018-12-25T00:36:00.338Z,101924.00
2018-12-25T00:38:31.291Z,101922.49
2018-12-25T00:41:02.252Z,101923.53
2018-12-25T00:43:33.215Z,101926.89
2018-12-25T00:46:04.275Z,101923.41
2018-12-25T00:48:35.242Z,101929.16
2018-12-25T00:51:06.268Z,101922.72
2018-12-25T00:53:37.203Z,101928.29
2018-12-25T00:56:08.149Z,101920.28
2018-12-25T00:58:39.093Z,101922.03
2018-12-25T01:01:10.035Z,101918.95
2018-12-25T01:03:41.023Z,101918.31
2018-12-25T01:06:11.956Z,101916.87
2018-12-25T01:08:42.979Z,101922.25
2018-12-25T01:11:13.991Z,101915.00
2018-12-25T01:13:44.898Z,101919.41
2018-12-25T01:16:15.848Z,101910.59
2018-12-25T01:18:46.816Z,101912.59
2018-12-25T01:21:17.793Z,101917.91
2018-12-25T01:23:49.072Z,101919.06
2018-12-25T01:26:20.010Z,101918.20
2018-12-25T01:28:51.035Z,101912.87
2018-12-25T01:31:21.954Z,101918.27
2018-12-25T01:33:52.863Z,101926.78
2018-12-25T01:36:23.776Z,101926.95
2018-12-25T01:38:54.704Z,101923.89
2018-12-25T01:41:25.643Z,101918.02
2018-12-25T01:43:56.605Z,101920.86
2018-12-25T01:46:27.523Z,101922.84
2018-12-25T01:48:58.524Z,101925.63
2018-12-25T01:51:29.513Z,101926.49
2018-12-25T01:54:00.526Z,101929.67
2018-12-25T01:56:31.558Z,101925.50
2018-12-25T01:59:02.535Z,101925.97
2018-12-25T02:01:33.472Z,101927.53
2018-12-25T02:04:04.448Z,101918.89
2018-12-25T02:06:35.358Z,101924.41
2018-12-25T02:09:07.645Z,101916.93
2018-12-25T02:11:38.641Z,101911.19
2018-12-25T02:14:09.614Z,101915.83
2018-12-25T02:16:40.540Z,101914.59
2018-12-25T02:19:11.507Z,101917.86
2018-12-25T02:21:42.593Z,101912.27
2018-12-25T02:24:13.553Z,101918.02
2018-12-25T02:26:44.495Z,101916.99
2018-12-25T02:29:15.587Z,101914.48
2018-12-25T02:31:46.607Z,101907.92
2018-12-25T02:34:17.543Z,101909.86
2018-12-25T02:36:48.639Z,101906.95
2018-12-25T02:39:19.653Z,101905.83
2018-12-25T02:41:50.692Z,101901.42
2018-12-25T02:44:21.619Z,101892.27
2018-12-25T02:46:52.569Z,101884.86
2018-12-25T02:49:23.664Z,101881.66
2018-12-25T02:51:54.745Z,101883.67
2018-12-25T02:54:26.813Z,101881.01
2018-12-25T02:56:57.889Z,101874.09
2018-12-25T02:59:28.880Z,101869.84
2018-12-25T03:01:59.826Z,101880.45
2018-12-25T03:04:30.767Z,101874.90
2018-12-25T03:07:01.700Z,101873.50
2018-12-25T03:09:32.645Z,101878.44
2018-12-25T03:12:03.645Z,101872.45
2018-12-25T03:14:34.568Z,101869.71
2018-12-25T03:17:05.550Z,101870.27
2018-12-25T03:19:36.462Z,101873.21
2018-12-25T03:22:11.122Z,101873.28
2018-12-25T03:24:43.125Z,101870.56
2018-12-25T03:27:14.099Z,101870.30
2018-12-25T03:29:45.012Z,101870.11
2018-12-25T03:32:15.941Z,101864.75
2018-12-25T03:34:46.969Z,101861.07
2018-12-25T03:37:17.892Z,101859.06
2018-12-25T03:39:48.820Z,101856.94
2018-12-25T03:42:21.596Z,101848.00
2018-12-25T03:44:52.520Z,101841.91
2018-12-25T03:47:23.492Z,101846.94
2018-12-25T03:49:54.406Z,101843.20
2018-12-25T03:52:25.337Z,101846.94
2018-12-25T03:54:56.321Z,101844.95
2018-12-25T03:57:27.245Z,101842.34
2018-12-25T03:59:58.198Z,101831.06
2018-12-25T04:02:29.109Z,101831.06
2018-12-25T04:05:00.044Z,101831.05
2018-12-25T04:07:30.963Z,101832.66
2018-12-25T04:10:01.894Z,101834.80
2018-12-25T04:12:32.873Z,101826.50
2018-12-25T04:15:03.776Z,101832.65
2018-12-25T04:17:34.684Z,101838.59
2018-12-25T04:20:05.987Z,101831.94
2018-12-25T04:22:36.939Z,101833.00
2018-12-25T04:25:08.933Z,101840.22
2018-12-25T04:27:39.846Z,101832.81
2018-12-25T04:30:10.835Z,101848.38
2018-12-25T04:32:41.763Z,101847.30
2018-12-25T04:35:12.675Z,101837.99
2018-12-25T04:37:43.716Z,101829.98
2018-12-25T04:40:14.601Z,101830.44
2018-12-25T04:42:45.567Z,101834.28
2018-12-25T04:45:16.494Z,101821.50
2018-12-25T04:47:47.434Z,101825.44
2018-12-25T04:50:18.344Z,101826.05
2018-12-25T04:52:49.256Z,101830.13
2018-12-25T04:55:20.239Z,101821.83
2018-12-25T04:57:51.145Z,101820.63
2018-12-25T05:00:22.109Z,101824.77
2018-12-25T05:02:53.035Z,101817.83
2018-12-25T05:05:23.953Z,101821.23
2018-12-25T05:07:54.876Z,101829.25
2018-12-25T05:10:25.904Z,101825.97
2018-12-25T05:12:56.795Z,101832.39
2018-12-25T05:15:27.749Z,101830.72
2018-12-25T05:17:58.670Z,101831.45
2018-12-25T05:20:37.701Z,101825.30
2018-12-25T05:23:02.238Z,101828.38
2018-12-25T05:25:33.241Z,101819.16
2018-12-25T05:28:04.149Z,101821.10
2018-12-25T05:30:35.100Z,101818.62
2018-12-25T05:33:06.079Z,101822.50
2018-12-25T05:35:37.043Z,101823.44
2018-12-25T05:38:08.008Z,101827.78
2018-12-25T05:40:39.041Z,101834.72
2018-12-25T05:43:09.967Z,101834.86
2018-12-25T05:45:40.879Z,101838.94
2018-12-25T05:48:11.793Z,101831.92
2018-12-25T05:50:46.784Z,101825.72
2018-12-25T05:53:15.369Z,101824.64
2018-12-25T05:55:46.289Z,101828.52
2018-12-25T05:58:17.227Z,101825.64
2018-12-25T06:00:48.276Z,101829.17
2018-12-25T06:03:19.180Z,101821.70
2018-12-25T06:05:50.188Z,101823.70
2018-12-25T06:08:21.101Z,101819.70
2018-12-25T06:10:52.030Z,101822.77
2018-12-25T06:13:23.008Z,101814.69
2018-12-25T06:15:53.919Z,101816.63
2018-12-25T06:18:24.842Z,101814.30
2018-12-25T06:20:55.759Z,101821.70
2018-12-25T06:23:26.684Z,101816.77
2018-12-25T06:25:57.659Z,101813.89
2018-12-25T06:28:28.578Z,101816.30
2018-12-25T06:30:59.603Z,101816.43
2018-12-25T06:33:30.559Z,101814.69
2018-12-25T06:36:02.612Z,101817.70
2018-12-25T06:38:33.524Z,101814.23
2018-12-25T06:41:04.513Z,101816.17
2018-12-25T06:43:35.548Z,101820.51
2018-12-25T06:46:07.587Z,101816.91
2018-12-25T06:48:38.502Z,101806.69
2018-12-25T06:51:10.406Z,101806.22
2018-12-25T06:53:41.372Z,101807.42
2018-12-25T06:56:12.311Z,101801.28
2018-12-25T06:58:43.254Z,101801.88
2018-12-25T07:01:14.200Z,101794.86
2018-12-25T07:03:45.141Z,101796.20
2018-12-25T07:06:16.160Z,101790.84
2018-12-25T07:08:47.098Z,101787.09
2018-12-25T07:11:18.059Z,101784.62
2018-12-25T07:13:49.015Z,101771.47
2018-12-25T07:16:19.972Z,101771.59
2018-12-25T07:18:50.892Z,101772.92
2018-12-25T07:21:21.869Z,101774.66
2018-12-25T07:23:52.860Z,101767.00
2018-12-25T07:26:23.768Z,101765.78
2018-12-25T07:28:54.735Z,101762.57
2018-12-25T07:31:26.893Z,101769.11
2018-12-25T07:33:57.881Z,101763.37
2018-12-25T07:36:28.831Z,101760.55
2018-12-25T07:38:59.744Z,101761.34
2018-12-25T07:41:33.056Z,101756.40
2018-12-25T07:44:04.880Z,101748.20
2018-12-25T07:46:39.181Z,101748.99
2018-12-25T07:49:19.797Z,101748.30
2018-12-25T07:52:16.058Z,101741.69
2018-12-25T07:54:52.757Z,101742.70
2018-12-25T07:57:23.827Z,101741.52
2018-12-25T07:59:54.757Z,101736.31
2018-12-25T08:02:25.692Z,101741.77
2018-12-25T08:04:58.302Z,101739.34
2018-12-25T08:07:29.266Z,101736.13
2018-12-25T08:10:13.053Z,101728.35
2018-12-25T08:12:44.071Z,101732.69
2018-12-25T08:15:15.025Z,101730.90
2018-12-25T08:17:46.586Z,101727.21
2018-12-25T08:20:20.115Z,101728.15
2018-12-25T08:22:51.069Z,101724.78
2018-12-25T08:25:22.077Z,101728.11
2018-12-25T08:27:53.196Z,101732.77
2018-12-25T08:30:24.364Z,101731.19
2018-12-25T08:32:55.377Z,101726.06
2018-12-25T08:35:26.368Z,101731.98
2018-12-25T08:37:57.420Z,101730.48
2018-12-25T08:40:28.519Z,101733.47
2018-12-25T08:42:59.437Z,101739.14
2018-12-25T08:45:30.409Z,101736.84
2018-12-25T08:48:01.620Z,101745.19
2018-12-25T08:50:33.114Z,101748.33
2018-12-25T08:53:04.024Z,101738.09
2018-12-25T08:55:37.307Z,101740.61
2018-12-25T08:58:08.310Z,101733.73
2018-12-25T09:00:39.544Z,101732.31
2018-12-25T09:03:10.576Z,101737.98
2018-12-25T09:05:41.580Z,101737.42
2018-12-25T09:08:12.915Z,101744.44
2018-12-25T09:10:44.138Z,101745.59
2018-12-25T09:13:15.130Z,101741.31
2018-12-25T09:15:46.089Z,101741.63
2018-12-25T09:18:17.017Z,101738.83
2018-12-25T09:20:50.259Z,101743.95
2018-12-25T09:23:21.193Z,101741.34
2018-12-25T09:25:52.213Z,101747.73
2018-12-25T09:28:23.852Z,101750.10
2018-12-25T09:30:55.224Z,101742.84
2018-12-25T09:33:30.068Z,101744.24
2018-12-25T09:36:00.996Z,101752.08
2018-12-25T09:38:32.339Z,101747.75
2018-12-25T09:41:03.795Z,101742.14
2018-12-25T09:43:34.920Z,101746.56
2018-12-25T09:46:06.280Z,101751.36
2018-12-25T09:48:37.338Z,101752.77
2018-12-25T09:51:08.373Z,101751.01
2018-12-25T09:53:39.398Z,101752.37
2018-12-25T09:56:10.448Z,101751.98
2018-12-25T09:58:41.386Z,101760.16
2018-12-25T10:01:12.413Z,101759.60
2018-12-25T10:03:43.338Z,101759.32
2018-12-25T10:06:14.280Z,101759.32
2018-12-25T10:08:45.279Z,101754.00
2018-12-25T10:11:16.211Z,101753.66
2018-12-25T10:13:47.145Z,101756.56
2018-12-25T10:16:18.081Z,101744.80
2018-12-25T10:18:49.047Z,101740.59
2018-12-25T10:21:20.007Z,101743.97
2018-12-25T10:23:50.954Z,101740.98
2018-12-25T10:26:22.427Z,101737.73
2018-12-25T10:28:57.406Z,101729.64
2018-12-25T10:31:29.929Z,101724.95
2018-12-25T10:34:01.179Z,101719.12
2018-12-25T10:36:32.195Z,101720.63
2018-12-25T10:39:04.639Z,101724.39
2018-12-25T10:41:35.822Z,101727.20
2018-12-25T10:44:06.821Z,101722.31
2018-12-25T10:46:37.981Z,101708.98
2018-12-25T10:49:09.061Z,101712.44
2018-12-25T10:51:40.010Z,101717.72
2018-12-25T10:54:11.000Z,101710.23
2018-12-25T10:56:42.986Z,101715.33
2018-12-25T10:59:14.050Z,101703.25
2018-12-25T11:01:45.027Z,101694.81
2018-12-25T11:04:16.212Z,101689.83
2018-12-25T11:06:47.533Z,101690.16
2018-12-25T11:09:18.775Z,101687.66
2018-12-25T11:11:49.787Z,101681.80
2018-12-25T11:14:21.087Z,101671.27
2018-12-25T11:16:52.137Z,101661.98
2018-12-25T11:19:24.549Z,101671.56
2018-12-25T11:21:55.701Z,101675.32
2018-12-25T11:24:26.969Z,101675.50
2018-12-25T11:26:57.961Z,101672.16
2018-12-25T11:29:28.975Z,101671.86
2018-12-25T11:32:00.833Z,101667.28
2018-12-25T11:34:31.917Z,101667.85
2018-12-25T11:37:02.945Z,101667.45
2018-12-25T11:39:33.887Z,101674.16
2018-12-25T11:42:05.079Z,101670.52
2018-12-25T11:44:36.600Z,101671.56
2018-12-25T11:47:08.754Z,101678.09
2018-12-25T11:49:39.735Z,101662.76
2018-12-25T11:52:10.698Z,101668.41
2018-12-25T11:54:41.981Z,101668.49
2018-12-25T11:57:13.501Z,101671.09
2018-12-25T11:59:44.445Z,101669.27
2018-12-25T12:02:17.225Z,101663.71
2018-12-25T12:04:48.147Z,101671.59
2018-12-25T12:07:19.339Z,101666.12
2018-12-25T12:09:50.269Z,101665.17
2018-12-25T12:12:21.306Z,101668.99
2018-12-25T12:14:52.236Z,101672.34
2018-12-25T12:17:23.210Z,101669.95
2018-12-25T12:19:55.789Z,101665.53
2018-12-25T12:26:06.633Z,101669.95
2018-12-25T12:28:37.688Z,101679.16
2018-12-25T12:31:08.782Z,101672.17
2018-12-25T12:33:39.759Z,101671.13
2018-12-25T12:36:10.733Z,101669.31
2018-12-25T12:38:41.713Z,101680.23
2018-12-25T12:41:12.690Z,101682.26
2018-12-25T12:43:43.668Z,101676.58
2018-12-25T12:46:14.635Z,101682.42
2018-12-25T12:49:45.341Z,101686.45
2018-12-25T12:57:03.048Z,101688.41
2018-12-25T12:59:47.768Z,101682.64
2018-12-25T13:02:20.082Z,101688.41
2018-12-25T13:04:51.005Z,101689.74
2018-12-25T13:07:21.966Z,101698.94
2018-12-25T13:09:52.991Z,101702.20
2018-12-25T13:12:24.019Z,101692.70
2018-12-25T13:14:54.989Z,101699.80
2018-12-25T13:17:25.971Z,101697.30
2018-12-25T13:19:56.885Z,101707.77
2018-12-25T13:22:27.868Z,101696.34
2018-12-25T13:24:58.793Z,101697.39
2018-12-25T13:27:29.718Z,101702.95
2018-12-25T13:30:00.664Z,101702.97
2018-12-25T13:32:31.656Z,101700.86
2018-12-25T13:35:02.618Z,101704.99
2018-12-25T13:37:33.536Z,101700.88
2018-12-25T13:40:04.766Z,101701.44
2018-12-25T13:42:35.744Z,101704.99
2018-12-25T13:45:06.761Z,101707.85
2018-12-25T13:47:37.718Z,101711.78
2018-12-25T13:50:09.641Z,101716.60
2018-12-25T13:52:41.640Z,101718.02
2018-12-25T13:55:12.563Z,101713.91
2018-12-25T13:57:43.489Z,101715.83
2018-12-25T14:00:14.434Z,101719.45
2018-12-25T14:02:45.373Z,101710.61
2018-12-25T14:05:16.706Z,101711.77
2018-12-25T14:07:47.655Z,101725.20
2018-12-25T14:10:18.598Z,101725.38
2018-12-25T14:12:49.582Z,101721.67
2018-12-25T14:15:20.579Z,101721.37
2018-12-25T14:17:51.599Z,101725.53
2018-12-25T14:20:22.533Z,101721.20
2018-12-25T14:22:53.630Z,101717.25
2018-12-25T14:25:24.576Z,101720.80
2018-12-25T14:27:55.563Z,101717.86
2018-12-25T14:30:26.483Z,101712.86
2018-12-25T14:32:57.464Z,101709.13
2018-12-25T14:35:28.510Z,101715.92
2018-12-25T14:37:59.523Z,101720.82
2018-12-25T14:40:30.524Z,101716.41
2018-12-25T14:43:01.572Z,101722.73
2018-12-25T14:45:34.083Z,101720.44
2018-12-25T14:48:05.054Z,101726.41
2018-12-25T14:50:35.977Z,101720.25
2018-12-25T14:53:06.923Z,101720.16
2018-12-25T14:55:37.975Z,101716.91
2018-12-25T14:58:08.953Z,101718.05
2018-12-25T15:00:39.978Z,101720.45
2018-12-25T15:03:10.950Z,101725.73
2018-12-25T15:05:41.877Z,101729.86
2018-12-25T15:08:12.933Z,101727.38
2018-12-25T15:10:44.036Z,101729.10
2018-12-25T15:13:15.052Z,101725.08
2018-12-25T15:15:46.012Z,101729.67
2018-12-25T15:18:17.058Z,101730.16
2018-12-25T15:20:48.149Z,101733.70
2018-12-25T15:23:19.333Z,101726.60
2018-12-25T15:25:50.294Z,101728.53
2018-12-25T15:28:21.342Z,101730.45
2018-12-25T15:30:52.358Z,101723.25
2018-12-25T15:33:23.425Z,101731.98
2018-12-25T15:35:54.382Z,101727.65
2018-12-25T15:38:25.362Z,101727.74
2018-12-25T15:40:57.396Z,101724.58
2018-12-25T15:43:28.501Z,101722.66
2018-12-25T15:45:59.516Z,101723.93
2018-12-25T15:48:30.499Z,101734.20
2018-12-25T15:51:01.546Z,101733.15
2018-12-25T15:53:36.818Z,101729.97
2018-12-25T15:56:05.248Z,101740.23
2018-12-25T15:58:36.201Z,101737.84
2018-12-25T16:01:07.197Z,101731.14
2018-12-25T16:03:38.228Z,101724.15
2018-12-25T16:06:09.155Z,101731.64
2018-12-25T16:08:40.126Z,101725.29
2018-12-25T16:11:11.201Z,101724.98
2018-12-25T16:13:42.250Z,101727.59
2018-12-25T16:16:15.787Z,101727.00
2018-12-25T16:18:46.804Z,101727.95
2018-12-25T16:21:17.752Z,101726.48
2018-12-25T16:23:50.503Z,101734.73
2018-12-25T16:26:21.506Z,101738.30
2018-12-25T16:28:52.557Z,101741.27
2018-12-25T16:31:23.704Z,101744.23
2018-12-25T16:33:55.706Z,101741.27
2018-12-25T16:36:26.716Z,101743.68
2018-12-25T16:38:57.654Z,101738.19
2018-12-25T16:41:28.723Z,101746.55
2018-12-25T16:43:59.757Z,101740.03
2018-12-25T16:46:30.793Z,101740.67
2018-12-25T16:49:01.871Z,101746.44
2018-12-25T16:51:35.126Z,101748.46
2018-12-25T16:54:06.151Z,101752.88
2018-12-25T16:56:37.136Z,101755.56
2018-12-25T16:59:08.187Z,101760.37
2018-12-25T17:01:39.301Z,101758.14
2018-12-25T17:04:10.311Z,101764.38
2018-12-25T17:06:41.330Z,101761.20
2018-12-25T17:09:12.415Z,101761.30
2018-12-25T17:11:43.498Z,101761.80
2018-12-25T17:14:14.512Z,101757.39
2018-12-25T17:16:45.564Z,101762.96
2018-12-25T17:19:16.610Z,101764.58
2018-12-25T17:21:47.579Z,101764.55
2018-12-25T17:24:18.600Z,101759.96
2018-12-25T17:26:49.649Z,101757.28
2018-12-25T17:29:20.597Z,101758.41
2018-12-25T17:31:51.557Z,101756.50
2018-12-25T17:34:22.523Z,101767.03
2018-12-25T17:36:53.502Z,101768.34
2018-12-25T17:39:24.663Z,101766.62
2018-12-25T17:41:55.570Z,101765.66
2018-12-25T17:44:26.817Z,101769.52
2018-12-25T17:46:57.913Z,101766.14
2018-12-25T17:49:28.980Z,101767.58
2018-12-25T17:51:59.948Z,101769.78
2018-12-25T17:54:30.901Z,101768.97
2018-12-25T18:00:43.756Z,101765.27
2018-12-25T18:03:14.807Z,101766.20
2018-12-25T18:05:45.776Z,101766.50
2018-12-25T18:08:16.703Z,101760.05
2018-12-25T18:10:47.640Z,101769.45
2018-12-25T18:13:18.634Z,101767.33
2018-12-25T18:15:49.552Z,101765.24
2018-12-25T18:18:20.628Z,101768.31
2018-12-25T18:20:51.559Z,101766.11
2018-12-25T18:23:22.555Z,101758.92
2018-12-25T18:25:53.488Z,101771.60
2018-12-25T18:28:24.639Z,101773.33
2018-12-25T18:30:55.709Z,101770.86
2018-12-25T18:33:26.899Z,101772.29
2018-12-25T18:35:57.919Z,101774.20
2018-12-25T18:38:29.086Z,101784.34
2018-12-25T18:40:59.967Z,101779.45
2018-12-25T18:43:30.902Z,101778.58
2018-12-25T18:46:01.826Z,101777.15
2018-12-25T18:48:32.814Z,101772.52
2018-12-25T18:51:03.807Z,101776.67
2018-12-25T18:53:34.814Z,101776.41
2018-12-25T18:56:05.794Z,101771.87
2018-12-25T18:58:36.713Z,101783.08
2018-12-25T19:01:07.710Z,101769.96
2018-12-25T19:03:38.729Z,101773.13
2018-12-25T19:06:09.735Z,101767.45
2018-12-25T19:08:40.757Z,101771.22
2018-12-25T19:11:11.682Z,101774.98
2018-12-25T19:13:42.732Z,101770.98
2018-12-25T19:16:13.668Z,101776.14
2018-12-25T19:18:44.734Z,101777.53
2018-12-25T19:21:15.654Z,101785.80
2018-12-25T19:23:55.367Z,101778.31
2018-12-25T19:26:26.381Z,101778.55
2018-12-25T19:28:57.423Z,101781.21
2018-12-25T19:31:28.483Z,101775.84
2018-12-25T19:33:59.403Z,101778.26
2018-12-25T19:36:30.345Z,101778.52
2018-12-25T19:39:01.306Z,101778.64
2018-12-25T19:41:33.894Z,101772.50
2018-12-25T19:44:04.849Z,101772.02
2018-12-25T19:46:35.896Z,101775.36
2018-12-25T19:49:07.042Z,101769.81
2018-12-25T19:51:37.975Z,101777.27
2018-12-25T19:54:08.953Z,101783.45
2018-12-25T19:56:39.993Z,101790.05
2018-12-25T19:59:10.943Z,101788.31
2018-12-25T20:01:41.872Z,101791.17
2018-12-25T20:04:50.009Z,101796.45
2018-12-25T20:07:58.064Z,101795.36
2018-12-25T20:10:45.985Z,101798.88
2018-12-25T20:14:16.369Z,101798.06
2018-12-25T20:17:24.256Z,101802.66
2018-12-25T20:20:44.527Z,101800.01
2018-12-25T20:24:05.852Z,101796.45
2018-12-25T20:27:25.787Z,101799.14
2018-12-25T20:30:43.624Z,101797.92
2018-12-25T20:33:30.467Z,101796.06
2018-12-25T20:36:54.038Z,101795.34
2018-12-25T20:40:07.689Z,101797.59
2018-12-25T20:43:15.412Z,101803.75
2018-12-25T20:46:13.835Z,101793.36
2018-12-25T20:49:41.092Z,101801.20
2018-12-25T20:52:57.628Z,101797.81
2018-12-25T20:56:04.375Z,101794.74
2018-12-25T20:58:56.472Z,101805.73
2018-12-25T21:02:02.398Z,101808.59
2018-12-25T21:05:22.594Z,101805.47
2018-12-25T21:08:49.158Z,101798.02
2018-12-25T21:11:59.935Z,101798.21
2018-12-25T21:15:20.485Z,101794.50
2018-12-25T21:18:46.620Z,101792.98
2018-12-25T21:21:46.810Z,101804.92
2018-12-25T21:24:53.716Z,101801.29
2018-12-25T21:27:33.322Z,101808.55
2018-12-25T21:30:11.147Z,101816.30
2018-12-25T21:32:43.662Z,101821.13
2018-12-25T21:35:25.340Z,101811.09
2018-12-25T21:37:57.582Z,101812.19
2018-12-25T21:40:28.640Z,101807.21
2018-12-25T21:42:59.856Z,101801.17
2018-12-25T21:45:30.906Z,101801.81
2018-12-25T21:48:01.988Z,101795.25
2018-12-25T21:50:32.958Z,101802.02
2018-12-25T21:53:04.165Z,101789.38
2018-12-25T21:55:35.434Z,101789.95
2018-12-25T21:58:06.653Z,101784.41
2018-12-25T22:00:37.635Z,101782.98
2018-12-25T22:03:08.650Z,101783.13
2018-12-25T22:05:39.647Z,101778.63
2018-12-25T22:08:10.679Z,101768.37
2018-12-25T22:10:41.893Z,101766.16
2018-12-25T22:13:12.901Z,101774.04
2018-12-25T22:15:43.959Z,101771.91
2018-12-25T22:18:14.976Z,101773.26
2018-12-25T22:20:46.162Z,101766.98
2018-12-25T22:23:17.230Z,101770.23
2018-12-25T22:25:49.024Z,101769.89
2018-12-25T22:28:20.141Z,101766.34
2018-12-25T22:30:52.474Z,101760.77
2018-12-25T22:33:25.677Z,101762.02
2018-12-25T22:35:56.954Z,101759.42
2018-12-25T22:38:31.486Z,101755.56
2018-12-25T22:41:05.643Z,101741.55
2018-12-25T22:43:39.940Z,101746.60
2018-12-25T22:46:11.039Z,101743.58
2018-12-25T22:49:26.907Z,101751.63
2018-12-25T22:51:58.519Z,101744.22
2018-12-25T22:54:29.632Z,101748.42
2018-12-25T22:57:03.770Z,101751.15
2018-12-25T22:59:34.902Z,101745.22
2018-12-25T23:02:06.012Z,101744.45
2018-12-25T23:04:37.160Z,101747.60
2018-12-25T23:07:08.440Z,101749.81
2018-12-25T23:09:39.552Z,101744.66
2018-12-25T23:12:13.758Z,101742.54
2018-12-25T23:14:46.440Z,101747.30
2018-12-25T23:17:17.489Z,101745.66
2018-12-25T23:19:48.458Z,101736.91
2018-12-25T23:22:19.440Z,101734.45
2018-12-25T23:24:50.371Z,101734.14
2018-12-25T23:27:21.350Z,101731.33
2018-12-25T23:29:52.378Z,101721.07
2018-12-25T23:32:32.763Z,101720.77
2018-12-25T23:35:03.798Z,101718.78
2018-12-25T23:37:34.811Z,101712.67
2018-12-25T23:40:06.101Z,101714.11
2018-12-25T23:42:37.202Z,101712.77
2018-12-25T23:45:08.163Z,101711.91
2018-12-25T23:47:39.216Z,101702.00
2018-12-25T23:50:10.156Z,101711.95
2018-12-25T23:52:41.158Z,101695.59
2018-12-25T23:55:12.091Z,101691.44
2018-12-25T23:57:43.063Z,101694.38
